Time;durP1;ratioP1;P1;durP2;ratioP2;P2;SDS_P1;SDS_P2;PMS_P1;PMS_P2;Temp;Humidity;BMP_temperature;BMP_pressure;BME280_temperature;BME280_humidity;BME280_pressure;Samples;Min_cycle;Max_cycle;Signal;HPM_P1;HPM_P2
2022/11/06 00:00:20;;;;;;;;;;;20.10;67.20;;;;;;5040824;28;755;-70
2022/11/06 00:02:45;;;;;;;;;;;20.10;67.20;;;;;;5022727;28;927;-70
2022/11/06 00:07:54;;;;;;;;;;;20.20;67.20;;;;;;5038269;28;809;-70
2022/11/06 00:10:20;;;;;;;;;;;20.10;67.20;;;;;;5041754;28;1053;-70
2022/11/06 00:12:46;;;;;;;;;;;20.20;67.30;;;;;;5041144;28;968;-69
2022/11/06 00:15:12;;;;;;;;;;;20.10;67.30;;;;;;5020532;28;1898;-70
2022/11/06 00:17:37;;;;;;;;;;;20.10;67.30;;;;;;5039430;28;899;-69
2022/11/06 00:20:04;;;;;;;;;;;20.10;67.30;;;;;;5039894;28;950;-70
2022/11/06 00:22:36;;;;;;;;;;;20.10;67.30;;;;;;5040410;28;906;-70
2022/11/06 00:25:02;;;;;;;;;;;20.10;67.30;;;;;;5040113;28;791;-70
2022/11/06 00:27:28;;;;;;;;;;;20.10;67.30;;;;;;5039777;28;1197;-70
2022/11/06 00:29:53;;;;;;;;;;;20.10;67.30;;;;;;5040669;28;808;-70
2022/11/06 00:32:19;;;;;;;;;;;20.10;67.30;;;;;;5041838;28;1092;-70
2022/11/06 00:34:44;;;;;;;;;;;20.10;67.30;;;;;;5022501;28;1902;-69
2022/11/06 00:37:10;;;;;;;;;;;20.10;67.30;;;;;;5037935;28;1291;-70
2022/11/06 00:39:35;;;;;;;;;;;20.10;67.40;;;;;;5038773;28;742;-70
2022/11/06 00:42:01;;;;;;;;;;;20.10;67.40;;;;;;5042098;28;753;-70
2022/11/06 00:44:26;;;;;;;;;;;20.10;67.40;;;;;;5038390;28;847;-70
2022/11/06 00:46:51;;;;;;;;;;;20.10;67.40;;;;;;5036646;28;1251;-70
2022/11/06 00:49:17;;;;;;;;;;;20.10;67.40;;;;;;5040990;28;858;-69
2022/11/06 00:51:42;;;;;;;;;;;20.10;67.40;;;;;;5039225;28;1250;-70
2022/11/06 00:54:10;;;;;;;;;;;20.10;67.40;;;;;;5038172;28;881;-70
2022/11/06 00:56:35;;;;;;;;;;;20.10;67.40;;;;;;5038686;28;1272;-69
2022/11/06 00:59:01;;;;;;;;;;;20.10;67.50;;;;;;5040657;28;934;-70
2022/11/06 01:01:30;;;;;;;;;;;20.10;67.50;;;;;;5019502;28;948;-70
2022/11/06 01:03:57;;;;;;;;;;;20.10;67.50;;;;;;5018814;28;783;-70
2022/11/06 01:06:23;;;;;;;;;;;20.10;67.50;;;;;;5017079;28;1221;-70
2022/11/06 01:08:49;;;;;;;;;;;20.10;67.50;;;;;;5036745;28;1260;-70
2022/11/06 01:11:18;;;;;;;;;;;20.10;67.50;;;;;;5021305;28;1319;-69
2022/11/06 01:13:44;;;;;;;;;;;20.10;67.50;;;;;;5040665;28;1078;-70
2022/11/06 01:16:10;;;;;;;;;;;20.10;67.50;;;;;;5021658;28;1961;-70
2022/11/06 01:18:35;;;;;;;;;;;20.10;67.50;;;;;;5019769;28;899;-70
2022/11/06 01:21:24;;;;;;;;;;;20.10;67.50;;;;;;5038351;28;948;-70
2022/11/06 01:23:53;;;;;;;;;;;20.10;67.60;;;;;;5034437;28;1106;-70
2022/11/06 01:26:19;;;;;;;;;;;20.10;67.50;;;;;;5038394;28;1294;-70
2022/11/06 01:28:44;;;;;;;;;;;20.10;67.50;;;;;;5035442;28;1011;-70
2022/11/06 01:31:11;;;;;;;;;;;20.10;67.50;;;;;;5039450;28;829;-70
2022/11/06 01:33:36;;;;;;;;;;;20.10;67.60;;;;;;5018981;28;1006;-70
2022/11/06 01:36:02;;;;;;;;;;;20.10;67.60;;;;;;5034231;28;1973;-69
2022/11/06 01:38:27;;;;;;;;;;;20.10;67.60;;;;;;5041435;28;939;-69
2022/11/06 01:40:53;;;;;;;;;;;20.10;67.60;;;;;;5035967;28;954;-69
2022/11/06 01:43:20;;;;;;;;;;;20.10;67.60;;;;;;5019821;28;798;-70
2022/11/06 01:45:52;;;;;;;;;;;20.10;67.60;;;;;;5035619;28;1362;-70
2022/11/06 01:48:19;;;;;;;;;;;20.10;68.10;;;;;;5020417;28;866;-70
2022/11/06 01:50:45;;;;;;;;;;;20.10;67.70;;;;;;5036656;28;876;-70
2022/11/06 01:53:11;;;;;;;;;;;20.10;67.70;;;;;;5019793;28;879;-70
2022/11/06 01:55:38;;;;;;;;;;;20.10;67.70;;;;;;5034478;28;1914;-70
2022/11/06 01:58:04;;;;;;;;;;;20.10;67.70;;;;;;5018922;28;988;-70
2022/11/06 02:00:31;;;;;;;;;;;20.10;67.70;;;;;;5021210;28;1050;-70
2022/11/06 02:02:57;;;;;;;;;;;20.10;67.70;;;;;;5023300;28;867;-69
2022/11/06 02:05:22;;;;;;;;;;;20.10;67.80;;;;;;5046045;28;1292;-70
2022/11/06 02:07:48;;;;;;;;;;;20.10;67.70;;;;;;5046105;28;840;-69
2022/11/06 02:10:13;;;;;;;;;;;20.10;67.70;;;;;;5025039;28;1445;-70
2022/11/06 02:12:58;;;;;;;;;;;20.10;67.70;;;;;;5044253;28;1016;-70
2022/11/06 02:15:29;;;;;;;;;;;20.10;67.70;;;;;;5042802;28;1898;-69
2022/11/06 02:18:10;;;;;;;;;;;20.10;67.80;;;;;;5024347;28;840;-70
2022/11/06 02:20:44;;;;;;;;;;;20.10;67.80;;;;;;5042801;28;987;-70
2022/11/06 02:23:09;;;;;;;;;;;20.10;67.80;;;;;;5044312;28;1043;-70
2022/11/06 02:25:49;;;;;;;;;;;20.10;67.80;;;;;;5041685;28;1261;-69
2022/11/06 02:28:18;;;;;;;;;;;20.10;67.80;;;;;;5021240;28;841;-70
2022/11/06 02:30:43;;;;;;;;;;;20.10;67.80;;;;;;5040678;28;938;-70
2022/11/06 02:33:10;;;;;;;;;;;20.10;67.80;;;;;;5038569;28;1078;-70
2022/11/06 02:35:46;;;;;;;;;;;20.10;67.80;;;;;;5039085;28;1906;-70
2022/11/06 02:38:12;;;;;;;;;;;20.10;67.90;;;;;;5047728;28;912;-69
2022/11/06 02:40:38;;;;;;;;;;;20.10;67.80;;;;;;5038265;28;1237;-70
2022/11/06 02:43:05;;;;;;;;;;;20.10;67.80;;;;;;5021439;28;816;-70
2022/11/06 02:45:31;;;;;;;;;;;20.10;67.90;;;;;;5022865;28;1245;-70
2022/11/06 02:47:57;;;;;;;;;;;20.10;67.90;;;;;;5018228;28;1006;-70
2022/11/06 02:50:24;;;;;;;;;;;20.10;67.90;;;;;;5044722;28;821;-70
2022/11/06 02:52:51;;;;;;;;;;;20.10;67.90;;;;;;5042757;28;773;-70
2022/11/06 02:55:18;;;;;;;;;;;20.10;67.90;;;;;;5043066;28;1910;-70
2022/11/06 02:57:45;;;;;;;;;;;20.10;67.90;;;;;;5039874;28;1097;-69
2022/11/06 03:00:12;;;;;;;;;;;20.10;67.90;;;;;;5041518;28;1017;-70
2022/11/06 03:02:45;;;;;;;;;;;20.10;67.90;;;;;;5039583;28;998;-69
2022/11/06 03:05:12;;;;;;;;;;;20.10;68.00;;;;;;5024781;28;1281;-70
2022/11/06 03:07:50;;;;;;;;;;;20.10;67.90;;;;;;5027188;28;1291;-70
2022/11/06 03:10:16;;;;;;;;;;;20.10;67.90;;;;;;5023010;28;1042;-70
2022/11/06 03:12:54;;;;;;;;;;;20.10;67.90;;;;;;5039371;28;1069;-70
2022/11/06 03:15:38;;;;;;;;;;;20.10;68.00;;;;;;5041157;28;1906;-70
2022/11/06 03:18:11;;;;;;;;;;;20.10;68.00;;;;;;5039197;28;1053;-70
2022/11/06 03:20:55;;;;;;;;;;;20.10;68.00;;;;;;5023842;28;1435;-69
2022/11/06 03:23:21;;;;;;;;;;;20.10;68.00;;;;;;5035869;28;1053;-70
2022/11/06 03:25:49;;;;;;;;;;;20.10;68.00;;;;;;5037863;28;1271;-70
2022/11/06 03:28:18;;;;;;;;;;;20.10;68.00;;;;;;5035235;28;1089;-69
2022/11/06 03:30:47;;;;;;;;;;;20.10;68.00;;;;;;5022462;28;1081;-69
2022/11/06 03:33:13;;;;;;;;;;;20.10;68.00;;;;;;5025635;28;1450;-70
2022/11/06 03:35:46;;;;;;;;;;;20.10;68.00;;;;;;5027141;28;1910;-70
2022/11/06 03:38:22;;;;;;;;;;;20.10;68.00;;;;;;5025952;28;1038;-70
2022/11/06 03:40:49;;;;;;;;;;;20.10;68.70;;;;;;5022695;28;922;-70
2022/11/06 03:43:15;;;;;;;;;;;20.10;68.00;;;;;;5021871;28;1414;-70
2022/11/06 03:45:41;;;;;;;;;;;20.10;68.00;;;;;;5024158;28;1326;-70
2022/11/06 03:48:06;;;;;;;;;;;20.10;68.00;;;;;;5018757;28;879;-70
2022/11/06 03:50:36;;;;;;;;;;;20.10;68.00;;;;;;5039617;28;990;-70
2022/11/06 03:53:22;;;;;;;;;;;20.10;68.00;;;;;;5038514;28;895;-70
2022/11/06 03:55:49;;;;;;;;;;;20.10;68.10;;;;;;5039456;28;1950;-70
2022/11/06 03:58:21;;;;;;;;;;;20.10;68.00;;;;;;5022930;28;1030;-70
2022/11/06 04:00:47;;;;;;;;;;;20.10;68.00;;;;;;5037767;28;820;-70
2022/11/06 04:03:17;;;;;;;;;;;20.10;68.00;;;;;;5041534;28;823;-70
2022/11/06 04:05:45;;;;;;;;;;;20.10;68.10;;;;;;5023247;28;1348;-70
2022/11/06 04:14:00;;;;;;;;;;;20.10;68.10;;;;;;5023680;28;757;-70
2022/11/06 04:16:33;;;;;;;;;;;20.10;68.10;;;;;;5036277;28;1961;-70
2022/11/06 04:18:58;;;;;;;;;;;20.10;68.10;;;;;;5017684;28;840;-70
2022/11/06 04:21:30;;;;;;;;;;;20.10;68.10;;;;;;5038682;28;860;-70
2022/11/06 04:26:48;;;;;;;;;;;20.10;68.10;;;;;;5039499;28;1386;-69
2022/11/06 04:29:19;;;;;;;;;;;20.10;68.10;;;;;;5034979;28;877;-69
2022/11/06 04:31:51;;;;;;;;;;;20.10;68.10;;;;;;5021648;28;1456;-69
2022/11/06 04:34:33;;;;;;;;;;;20.10;68.10;;;;;;5040187;28;855;-69
2022/11/06 04:37:05;;;;;;;;;;;20.10;68.10;;;;;;5019773;28;1265;-69
2022/11/06 04:39:45;;;;;;;;;;;20.10;68.20;;;;;;5021301;28;943;-69
2022/11/06 04:42:27;;;;;;;;;;;20.10;68.20;;;;;;5038838;28;793;-69
2022/11/06 04:44:54;;;;;;;;;;;20.10;68.20;;;;;;5021731;28;945;-69
2022/11/06 04:47:20;;;;;;;;;;;20.10;68.20;;;;;;5018085;28;1371;-69
2022/11/06 04:49:45;;;;;;;;;;;20.10;68.20;;;;;;5022850;28;859;-69
2022/11/06 04:52:12;;;;;;;;;;;20.10;68.20;;;;;;5037320;28;999;-69
2022/11/06 04:54:37;;;;;;;;;;;20.00;68.10;;;;;;5041571;28;1934;-69
2022/11/06 04:57:03;;;;;;;;;;;20.10;68.20;;;;;;5038416;28;1315;-69
2022/11/06 04:59:29;;;;;;;;;;;20.10;68.20;;;;;;5036376;28;900;-69
2022/11/06 05:01:54;;;;;;;;;;;20.10;68.20;;;;;;5035401;28;995;-69
2022/11/06 05:04:19;;;;;;;;;;;20.10;68.20;;;;;;5036193;28;895;-69
2022/11/06 05:06:45;;;;;;;;;;;20.10;68.20;;;;;;5037290;28;1337;-69
2022/11/06 05:09:10;;;;;;;;;;;20.10;68.20;;;;;;5038028;28;1101;-70
2022/11/06 05:11:37;;;;;;;;;;;20.10;68.20;;;;;;5035987;28;906;-69
2022/11/06 05:14:02;;;;;;;;;;;20.10;68.20;;;;;;5036858;28;911;-70
2022/11/06 05:16:28;;;;;;;;;;;20.10;68.20;;;;;;5018038;28;1943;-70
2022/11/06 05:18:53;;;;;;;;;;;20.10;68.10;;;;;;5033620;28;891;-70
2022/11/06 05:24:03;;;;;;;;;;;20.10;68.00;;;;;;5040551;28;753;-70
2022/11/06 05:26:28;;;;;;;;;;;20.20;67.90;;;;;;5036900;28;1245;-70
2022/11/06 05:28:54;;;;;;;;;;;20.20;67.80;;;;;;5037043;28;856;-70
2022/11/06 05:31:19;;;;;;;;;;;20.20;67.70;;;;;;5041469;28;1372;-70
2022/11/06 05:33:44;;;;;;;;;;;20.20;67.60;;;;;;5036653;28;1309;-70
2022/11/06 05:36:10;;;;;;;;;;;20.20;67.50;;;;;;5038156;28;1914;-71
2022/11/06 05:38:35;;;;;;;;;;;20.30;67.50;;;;;;5035497;28;889;-70
2022/11/06 05:41:01;;;;;;;;;;;20.30;67.40;;;;;;5036243;28;926;-69
2022/11/06 05:43:26;;;;;;;;;;;20.30;67.30;;;;;;5040457;28;1116;-70
2022/11/06 05:45:52;;;;;;;;;;;20.40;67.20;;;;;;5037192;28;1269;-69
2022/11/06 05:48:17;;;;;;;;;;;20.40;67.20;;;;;;5039030;28;891;-70
2022/11/06 05:50:42;;;;;;;;;;;20.40;67.10;;;;;;5036564;28;1013;-70
2022/11/06 05:53:08;;;;;;;;;;;20.40;67.00;;;;;;5014231;28;1358;-70
2022/11/06 05:55:33;;;;;;;;;;;20.40;67.00;;;;;;5036922;28;1916;-68
2022/11/06 05:57:59;;;;;;;;;;;20.40;66.90;;;;;;5037990;28;1367;-68
2022/11/06 06:00:24;;;;;;;;;;;20.40;66.90;;;;;;5037803;28;1089;-68
2022/11/06 06:02:50;;;;;;;;;;;20.40;66.80;;;;;;5038225;28;773;-68
2022/11/06 06:05:15;;;;;;;;;;;20.50;66.80;;;;;;5038071;28;1329;-68
2022/11/06 06:07:41;;;;;;;;;;;20.50;66.80;;;;;;5038232;28;855;-68
2022/11/06 06:10:06;;;;;;;;;;;20.50;66.70;;;;;;5038381;28;985;-70
2022/11/06 06:12:32;;;;;;;;;;;20.60;66.70;;;;;;5037187;28;1030;-68
2022/11/06 06:14:57;;;;;;;;;;;20.70;66.60;;;;;;5035468;28;1891;-68
2022/11/06 06:17:23;;;;;;;;;;;20.70;66.50;;;;;;5039343;28;1384;-68
2022/11/06 06:19:48;;;;;;;;;;;20.80;66.40;;;;;;5038208;28;844;-68
2022/11/06 06:22:14;;;;;;;;;;;20.90;66.20;;;;;;5038873;28;861;-69
2022/11/06 06:24:40;;;;;;;;;;;21.10;66.00;;;;;;5032890;28;877;-71
2022/11/06 06:27:05;;;;;;;;;;;21.20;65.60;;;;;;5037757;28;1306;-70
2022/11/06 06:29:30;;;;;;;;;;;21.30;65.30;;;;;;5038472;28;835;-69
2022/11/06 06:31:56;;;;;;;;;;;21.40;65.00;;;;;;5037201;28;1085;-70
2022/11/06 06:34:21;;;;;;;;;;;21.50;64.70;;;;;;5034343;28;848;-70
2022/11/06 06:36:50;;;;;;;;;;;21.60;64.40;;;;;;5039266;28;1950;-69
2022/11/06 06:39:16;;;;;;;;;;;21.70;64.20;;;;;;5017816;28;817;-71
2022/11/06 06:41:41;;;;;;;;;;;21.80;63.90;;;;;;5016592;28;1070;-72
2022/11/06 06:44:06;;;;;;;;;;;21.80;63.60;;;;;;5038025;28;1515;-72
2022/11/06 06:46:32;;;;;;;;;;;21.90;63.40;;;;;;5018401;28;1323;-72
2022/11/06 06:48:57;;;;;;;;;;;22.00;63.20;;;;;;5037238;28;781;-72
2022/11/06 06:51:23;;;;;;;;;;;22.00;63.10;;;;;;5039289;28;872;-72
2022/11/06 06:53:48;;;;;;;;;;;22.10;62.90;;;;;;5041586;28;1125;-71
2022/11/06 06:56:15;;;;;;;;;;;22.10;62.80;;;;;;5036805;28;1983;-68
2022/11/06 06:58:40;;;;;;;;;;;22.10;62.70;;;;;;5032641;28;788;-68
2022/11/06 07:01:09;;;;;;;;;;;22.20;62.70;;;;;;5038715;28;822;-68
2022/11/06 07:03:35;;;;;;;;;;;22.20;62.60;;;;;;5038806;28;896;-69
2022/11/06 07:06:00;;;;;;;;;;;22.10;62.50;;;;;;5037641;28;1258;-68
2022/11/06 07:08:26;;;;;;;;;;;22.10;62.70;;;;;;5042285;28;848;-68
2022/11/06 07:10:51;;;;;;;;;;;22.10;62.70;;;;;;5025008;28;906;-70
2022/11/06 07:13:17;;;;;;;;;;;22.10;62.70;;;;;;5038204;28;903;-69
2022/11/06 07:15:42;;;;;;;;;;;22.10;62.80;;;;;;5037417;28;1914;-70
2022/11/06 07:18:07;;;;;;;;;;;22.10;62.80;;;;;;5038549;28;899;-70
2022/11/06 07:20:33;;;;;;;;;;;22.10;62.90;;;;;;5038729;28;1010;-70
2022/11/06 07:22:58;;;;;;;;;;;22.10;63.00;;;;;;5041223;28;859;-72
2022/11/06 07:25:24;;;;;;;;;;;22.10;63.10;;;;;;5039383;28;1189;-71
2022/11/06 07:27:50;;;;;;;;;;;22.10;63.10;;;;;;5035537;28;1189;-70
2022/11/06 07:30:15;;;;;;;;;;;22.10;63.20;;;;;;5019969;28;923;-72
2022/11/06 07:32:40;;;;;;;;;;;22.00;63.20;;;;;;5039928;28;1454;-73
2022/11/06 07:35:06;;;;;;;;;;;22.00;63.20;;;;;;5038022;28;1953;-72
2022/11/06 07:37:32;;;;;;;;;;;22.00;63.30;;;;;;5039609;28;875;-72
2022/11/06 07:39:57;;;;;;;;;;;22.00;64.10;;;;;;5035968;28;878;-72
2022/11/06 07:42:23;;;;;;;;;;;22.00;63.40;;;;;;5040576;28;895;-68
2022/11/06 07:44:53;;;;;;;;;;;22.00;63.40;;;;;;5041366;28;895;-68
2022/11/06 07:47:18;;;;;;;;;;;21.90;63.40;;;;;;5038283;28;1378;-69
2022/11/06 07:49:44;;;;;;;;;;;21.90;63.50;;;;;;5038565;28;1022;-70
2022/11/06 07:52:09;;;;;;;;;;;21.90;63.50;;;;;;5041226;28;1312;-69
2022/11/06 07:54:34;;;;;;;;;;;21.90;63.60;;;;;;5042221;28;1914;-68
2022/11/06 07:57:00;;;;;;;;;;;21.80;63.60;;;;;;5039158;28;1326;-69
2022/11/06 07:59:25;;;;;;;;;;;21.80;63.60;;;;;;5040291;28;1374;-69
2022/11/06 08:01:51;;;;;;;;;;;21.80;63.70;;;;;;5041683;28;1376;-68
2022/11/06 08:04:16;;;;;;;;;;;21.80;63.70;;;;;;5039283;28;1790;-68
2022/11/06 08:06:42;;;;;;;;;;;21.80;63.80;;;;;;5040364;28;1315;-68
2022/11/06 08:09:07;;;;;;;;;;;21.80;63.90;;;;;;5043573;28;1296;-68
2022/11/06 08:11:32;;;;;;;;;;;21.70;64.20;;;;;;5041535;28;1330;-68
2022/11/06 08:13:58;;;;;;;;;;;21.70;64.90;;;;;;5042514;28;1335;-68
2022/11/06 08:16:24;;;;;;;;;;;21.70;65.10;;;;;;5044024;28;1960;-68
2022/11/06 08:18:50;;;;;;;;;;;21.70;65.30;;;;;;5045274;28;1439;-68
2022/11/06 08:21:15;;;;;;;;;;;21.70;65.60;;;;;;5042306;28;1408;-68
2022/11/06 08:23:41;;;;;;;;;;;21.70;65.60;;;;;;5041001;28;1329;-69
2022/11/06 08:26:06;;;;;;;;;;;21.70;65.60;;;;;;5041044;28;1609;-69
2022/11/06 08:28:35;;;;;;;;;;;21.80;65.80;;;;;;5042058;28;1289;-68
2022/11/06 08:31:04;;;;;;;;;;;21.80;65.80;;;;;;5040747;28;1430;-69
2022/11/06 08:33:29;;;;;;;;;;;21.80;65.80;;;;;;5041238;28;1367;-69
2022/11/06 08:35:55;;;;;;;;;;;21.80;65.90;;;;;;5036884;28;1909;-68
2022/11/06 08:38:20;;;;;;;;;;;21.80;66.00;;;;;;5040684;28;893;-69
2022/11/06 08:40:46;;;;;;;;;;;21.80;66.00;;;;;;5041255;28;949;-69
2022/11/06 08:43:11;;;;;;;;;;;21.80;66.00;;;;;;5038199;28;896;-69
2022/11/06 08:45:40;;;;;;;;;;;21.80;66.00;;;;;;5040057;28;2090;-69
2022/11/06 08:48:05;;;;;;;;;;;21.80;66.10;;;;;;5039703;28;1249;-67
2022/11/06 08:50:31;;;;;;;;;;;21.70;66.20;;;;;;5039282;28;1514;-68
2022/11/06 08:52:56;;;;;;;;;;;21.70;66.10;;;;;;5037867;28;1189;-67
2022/11/06 08:55:22;;;;;;;;;;;21.70;66.20;;;;;;5036611;28;1973;-68
2022/11/06 08:57:47;;;;;;;;;;;21.70;66.20;;;;;;5039031;28;1098;-67
2022/11/06 09:00:14;;;;;;;;;;;21.70;66.20;;;;;;5041495;28;1026;-68
2022/11/06 09:02:39;;;;;;;;;;;21.70;66.30;;;;;;5037857;28;913;-67
2022/11/06 09:05:05;;;;;;;;;;;21.70;66.40;;;;;;5038841;28;971;-68
2022/11/06 09:07:30;;;;;;;;;;;21.70;66.60;;;;;;5039023;28;1378;-67
2022/11/06 09:09:56;;;;;;;;;;;21.70;66.60;;;;;;5039732;28;1006;-68
2022/11/06 09:12:21;;;;;;;;;;;21.70;66.60;;;;;;5038859;28;1302;-68
2022/11/06 09:14:46;;;;;;;;;;;21.70;66.60;;;;;;5039211;28;1906;-68
2022/11/06 09:17:12;;;;;;;;;;;21.70;66.70;;;;;;5040316;28;1353;-68
2022/11/06 09:19:37;;;;;;;;;;;21.70;66.70;;;;;;5039905;28;835;-69
2022/11/06 09:22:03;;;;;;;;;;;21.70;66.70;;;;;;5035370;28;894;-68
2022/11/06 09:24:28;;;;;;;;;;;21.70;66.80;;;;;;5042451;28;931;-68
2022/11/06 09:26:54;;;;;;;;;;;21.70;66.70;;;;;;5036899;28;1255;-68
2022/11/06 09:29:19;;;;;;;;;;;21.70;67.50;;;;;;5036914;28;1228;-67
2022/11/06 09:31:44;;;;;;;;;;;21.70;66.80;;;;;;5039155;28;1447;-68
2022/11/06 09:34:10;;;;;;;;;;;21.70;66.80;;;;;;5038987;28;910;-68
2022/11/06 09:36:35;;;;;;;;;;;21.70;66.90;;;;;;5037823;28;1906;-68
2022/11/06 09:39:01;;;;;;;;;;;21.70;67.10;;;;;;5037296;28;797;-68
2022/11/06 09:41:38;;;;;;;;;;;21.70;67.10;;;;;;5037792;28;889;-68
2022/11/06 09:44:04;;;;;;;;;;;21.70;67.40;;;;;;5037501;28;887;-68
2022/11/06 09:46:30;;;;;;;;;;;21.70;67.50;;;;;;5040032;28;1760;-67
2022/11/06 09:49:01;;;;;;;;;;;21.70;67.50;;;;;;5020309;28;911;-69
2022/11/06 09:51:40;;;;;;;;;;;21.70;67.60;;;;;;5036408;28;1050;-69
2022/11/06 09:54:17;;;;;;;;;;;21.60;67.40;;;;;;5017185;28;828;-69
2022/11/06 09:56:42;;;;;;;;;;;21.60;67.40;;;;;;5023525;28;1914;-68
2022/11/06 09:59:09;;;;;;;;;;;21.60;67.60;;;;;;5041365;28;843;-67
2022/11/06 10:01:41;;;;;;;;;;;21.60;67.60;;;;;;5019979;28;865;-68
2022/11/06 10:04:09;;;;;;;;;;;21.60;67.60;;;;;;5039554;28;1038;-68
2022/11/06 10:06:35;;;;;;;;;;;21.60;67.70;;;;;;5023524;28;1277;-69
2022/11/06 10:09:01;;;;;;;;;;;21.60;67.80;;;;;;5038747;28;854;-67
2022/11/06 10:11:35;;;;;;;;;;;21.60;67.90;;;;;;5037750;28;1356;-68
2022/11/06 10:14:15;;;;;;;;;;;21.50;68.00;;;;;;5023023;28;902;-68
2022/11/06 10:17:00;;;;;;;;;;;21.50;68.20;;;;;;5037675;28;1894;-68
2022/11/06 10:19:46;;;;;;;;;;;21.50;68.40;;;;;;5037675;28;1583;-67
2022/11/06 10:22:12;;;;;;;;;;;21.50;68.70;;;;;;5036772;28;1046;-68
2022/11/06 10:24:37;;;;;;;;;;;21.50;68.80;;;;;;5040007;28;949;-68
2022/11/06 10:27:03;;;;;;;;;;;21.50;69.40;;;;;;5041565;28;1379;-67
2022/11/06 10:29:33;;;;;;;;;;;21.50;69.60;;;;;;5024388;28;1259;-68
2022/11/06 10:31:58;;;;;;;;;;;21.50;69.50;;;;;;5021417;28;1612;-68
2022/11/06 10:34:27;;;;;;;;;;;21.50;69.50;;;;;;5041492;28;828;-68
2022/11/06 10:37:00;;;;;;;;;;;21.50;69.40;;;;;;5026306;28;1964;-68
2022/11/06 10:39:27;;;;;;;;;;;21.50;69.50;;;;;;5042558;28;1046;-68
2022/11/06 10:41:56;;;;;;;;;;;21.50;69.50;;;;;;5024460;28;902;-68
2022/11/06 10:44:21;;;;;;;;;;;21.50;69.50;;;;;;5024013;28;1501;-68
2022/11/06 10:46:51;;;;;;;;;;;21.50;69.40;;;;;;5039158;28;1287;-68
2022/11/06 10:49:46;;;;;;;;;;;21.50;69.40;;;;;;5022555;28;861;-68
2022/11/06 10:52:12;;;;;;;;;;;21.50;69.50;;;;;;5034011;28;1249;-67
2022/11/06 10:54:50;;;;;;;;;;;21.40;69.60;;;;;;5044268;28;1973;-68
2022/11/06 10:57:31;;;;;;;;;;;21.50;69.50;;;;;;5022730;28;1338;-68
2022/11/06 10:59:56;;;;;;;;;;;21.40;69.50;;;;;;5026444;28;1113;-68
2022/11/06 11:02:23;;;;;;;;;;;21.40;69.50;;;;;;5043450;28;990;-68
2022/11/06 11:04:49;;;;;;;;;;;21.40;69.50;;;;;;5023495;28;825;-68
2022/11/06 11:07:14;;;;;;;;;;;21.40;69.50;;;;;;5040472;28;1274;-68
2022/11/06 11:09:40;;;;;;;;;;;21.40;69.50;;;;;;5037654;28;907;-68
2022/11/06 11:12:07;;;;;;;;;;;21.40;69.50;;;;;;5040668;28;1550;-69
2022/11/06 11:14:33;;;;;;;;;;;21.40;69.60;;;;;;5022031;28;1313;-68
2022/11/06 11:16:59;;;;;;;;;;;21.40;69.50;;;;;;5041283;28;1973;-68
2022/11/06 11:19:34;;;;;;;;;;;21.40;69.60;;;;;;5024258;28;880;-68
2022/11/06 11:22:04;;;;;;;;;;;21.40;69.80;;;;;;5044275;28;788;-68
2022/11/06 11:24:29;;;;;;;;;;;21.40;69.60;;;;;;5023069;28;935;-68
2022/11/06 11:27:01;;;;;;;;;;;21.40;69.40;;;;;;5040286;28;1368;-68
2022/11/06 11:29:40;;;;;;;;;;;21.40;69.30;;;;;;5041522;28;942;-68
2022/11/06 11:32:05;;;;;;;;;;;21.50;69.20;;;;;;5044094;28;1447;-67
2022/11/06 11:34:32;;;;;;;;;;;21.50;69.10;;;;;;5024705;28;926;-68
2022/11/06 11:37:01;;;;;;;;;;;21.50;69.10;;;;;;5037587;28;1961;-68
2022/11/06 11:39:28;;;;;;;;;;;21.50;69.10;;;;;;5022346;28;840;-68
2022/11/06 11:41:55;;;;;;;;;;;21.50;69.10;;;;;;5038996;28;848;-68
2022/11/06 11:44:20;;;;;;;;;;;21.50;69.30;;;;;;5018144;28;1174;-68
2022/11/06 11:46:50;;;;;;;;;;;21.50;69.30;;;;;;5042136;28;1253;-68
2022/11/06 11:49:26;;;;;;;;;;;21.50;69.40;;;;;;5041793;28;809;-68
2022/11/06 11:51:52;;;;;;;;;;;21.50;69.30;;;;;;5038203;28;904;-68
2022/11/06 11:54:18;;;;;;;;;;;21.50;69.50;;;;;;5042615;28;819;-67
2022/11/06 11:56:53;;;;;;;;;;;21.50;69.50;;;;;;5025850;28;1976;-68
2022/11/06 11:59:24;;;;;;;;;;;21.50;69.60;;;;;;5038099;28;823;-68
2022/11/06 12:01:50;;;;;;;;;;;21.50;69.70;;;;;;5042253;28;918;-68
2022/11/06 12:04:24;;;;;;;;;;;21.50;70.00;;;;;;5038935;28;932;-68
2022/11/06 12:06:54;;;;;;;;;;;21.50;70.50;;;;;;5024271;28;1282;-68
2022/11/06 12:09:19;;;;;;;;;;;21.40;70.70;;;;;;5021087;28;879;-69
2022/11/06 12:11:45;;;;;;;;;;;21.40;70.30;;;;;;5021635;28;1337;-69
2022/11/06 12:14:20;;;;;;;;;;;21.40;70.50;;;;;;5034898;28;823;-69
2022/11/06 12:16:47;;;;;;;;;;;21.40;70.30;;;;;;5042295;28;1919;-68
2022/11/06 12:19:12;;;;;;;;;;;21.30;70.40;;;;;;5039538;28;965;-68
2022/11/06 12:21:38;;;;;;;;;;;21.30;70.50;;;;;;5040101;28;1010;-69
2022/11/06 12:24:04;;;;;;;;;;;21.30;70.70;;;;;;5039661;28;896;-69
2022/11/06 12:26:32;;;;;;;;;;;21.30;70.90;;;;;;5041023;28;1292;-68
2022/11/06 12:29:01;;;;;;;;;;;21.30;70.90;;;;;;5040053;28;856;-69
2022/11/06 12:31:33;;;;;;;;;;;21.30;70.90;;;;;;5041356;28;1430;-68
2022/11/06 12:33:58;;;;;;;;;;;21.30;70.80;;;;;;5041172;28;2079;-69
2022/11/06 12:36:24;;;;;;;;;;;21.30;70.80;;;;;;5038408;28;1964;-68
2022/11/06 12:38:50;;;;;;;;;;;21.30;70.80;;;;;;5053194;28;1484;-68
2022/11/06 12:41:20;;;;;;;;;;;21.20;70.70;;;;;;5040368;28;1088;-67
2022/11/06 12:43:46;;;;;;;;;;;21.20;70.90;;;;;;5022595;28;896;-68
2022/11/06 12:46:12;;;;;;;;;;;21.20;70.80;;;;;;5039118;28;1287;-68
2022/11/06 12:48:49;;;;;;;;;;;21.20;70.90;;;;;;5040401;28;1043;-68
2022/11/06 12:51:35;;;;;;;;;;;21.20;71.00;;;;;;5038806;28;1435;-68
2022/11/06 12:54:10;;;;;;;;;;;21.20;70.90;;;;;;5038832;28;1028;-68
2022/11/06 12:56:38;;;;;;;;;;;21.30;71.10;;;;;;5037798;28;1910;-68
2022/11/06 12:59:17;;;;;;;;;;;21.20;71.30;;;;;;5037578;28;1046;-68
2022/11/06 13:01:52;;;;;;;;;;;21.20;71.40;;;;;;5022637;28;1217;-68
2022/11/06 13:04:42;;;;;;;;;;;21.30;71.60;;;;;;5037607;28;926;-68
2022/11/06 13:07:13;;;;;;;;;;;21.20;69.40;;;;;;5036260;28;1425;-68
2022/11/06 13:09:58;;;;;;;;;;;21.20;65.20;;;;;;5038404;28;935;-68
2022/11/06 13:12:24;;;;;;;;;;;21.10;63.60;;;;;;5039504;28;1107;-68
2022/11/06 13:14:55;;;;;;;;;;;21.00;61.50;;;;;;5039081;28;1910;-67
2022/11/06 13:17:24;;;;;;;;;;;21.00;60.40;;;;;;5020915;28;1368;-67
2022/11/06 13:20:01;;;;;;;;;;;20.90;59.70;;;;;;5022060;28;1419;-67
2022/11/06 13:22:37;;;;;;;;;;;20.90;59.10;;;;;;5036326;28;1455;-67
2022/11/06 13:25:12;;;;;;;;;;;20.80;58.60;;;;;;5023755;28;1366;-67
2022/11/06 13:27:43;;;;;;;;;;;20.80;58.40;;;;;;5041482;28;1367;-67
2022/11/06 13:30:12;;;;;;;;;;;20.70;58.00;;;;;;5043492;28;1204;-68
2022/11/06 13:32:37;;;;;;;;;;;20.70;57.90;;;;;;5027903;28;1863;-67
2022/11/06 13:35:03;;;;;;;;;;;20.60;56.90;;;;;;5036235;28;2005;-68
2022/11/06 13:37:38;;;;;;;;;;;20.60;56.40;;;;;;5038165;28;1979;-68
2022/11/06 13:40:12;;;;;;;;;;;20.60;56.50;;;;;;5038835;28;1396;-68
2022/11/06 13:42:39;;;;;;;;;;;20.60;56.90;;;;;;5021133;28;808;-68
2022/11/06 13:45:05;;;;;;;;;;;20.50;57.60;;;;;;5019092;28;1022;-68
2022/11/06 13:47:33;;;;;;;;;;;20.50;58.00;;;;;;5038363;28;1286;-68
2022/11/06 13:50:06;;;;;;;;;;;20.50;58.30;;;;;;5019831;28;955;-68
2022/11/06 13:53:04;;;;;;;;;;;20.50;58.80;;;;;;5039895;28;987;-68
2022/11/06 13:55:43;;;;;;;;;;;20.50;59.30;;;;;;5007127;28;1906;-68
2022/11/06 13:58:38;;;;;;;;;;;20.50;59.70;;;;;;5023222;28;1521;-68
2022/11/06 14:01:08;;;;;;;;;;;20.50;60.00;;;;;;5030634;28;1319;-68
2022/11/06 14:03:39;;;;;;;;;;;20.50;60.40;;;;;;5025001;28;1521;-68
2022/11/06 14:06:09;;;;;;;;;;;20.50;60.80;;;;;;5038380;28;1284;-69
2022/11/06 14:08:43;;;;;;;;;;;20.50;61.10;;;;;;5039402;28;1351;-68
2022/11/06 14:11:19;;;;;;;;;;;20.50;61.40;;;;;;5044493;28;1026;-67
2022/11/06 14:14:00;;;;;;;;;;;20.50;61.60;;;;;;5026193;28;851;-68
2022/11/06 14:16:30;;;;;;;;;;;20.50;61.90;;;;;;5022679;28;1961;-68
2022/11/06 14:19:03;;;;;;;;;;;20.50;62.10;;;;;;5022204;28;781;-68
2022/11/06 14:21:34;;;;;;;;;;;20.50;62.40;;;;;;5043397;28;864;-68
2022/11/06 14:24:06;;;;;;;;;;;20.50;62.60;;;;;;5037664;28;1030;-69
2022/11/06 14:26:36;;;;;;;;;;;20.50;62.80;;;;;;5022890;28;1418;-68
2022/11/06 14:29:21;;;;;;;;;;;20.50;63.00;;;;;;5024523;28;1199;-69
2022/11/06 14:32:16;;;;;;;;;;;20.50;63.10;;;;;;5023276;28;1391;-68
2022/11/06 14:34:41;;;;;;;;;;;20.50;63.30;;;;;;5034218;28;1161;-68
2022/11/06 14:37:16;;;;;;;;;;;20.50;63.50;;;;;;5043961;28;1964;-68
2022/11/06 14:39:51;;;;;;;;;;;20.50;63.60;;;;;;5043914;28;1064;-68
2022/11/06 14:42:17;;;;;;;;;;;20.50;63.70;;;;;;5038723;28;958;-68
2022/11/06 14:44:44;;;;;;;;;;;20.50;63.80;;;;;;5040154;28;1030;-68
2022/11/06 14:47:19;;;;;;;;;;;20.50;64.00;;;;;;5043720;28;1768;-70
2022/11/06 14:49:45;;;;;;;;;;;20.40;64.10;;;;;;5026954;28;1450;-69
2022/11/06 14:52:11;;;;;;;;;;;20.50;64.20;;;;;;5043348;28;1305;-69
2022/11/06 14:54:39;;;;;;;;;;;20.50;64.30;;;;;;5040642;28;1266;-68
2022/11/06 14:57:04;;;;;;;;;;;20.50;64.40;;;;;;5037190;28;1918;-68